Time,TemperatureF,DewpointF,PressureIn,WindDirection,WindDirectionDegrees,WindSpeedMPH,WindSpeedGustMPH,Humidity,HourlyPrecipIn,Conditions,Clouds,dailyrainin,SolarRadiationWatts/m^2,SoftwareType,DateUTC
2013-05-21 00:01:00,64.0,61.3,29.99,NE,56,0.0,0.0,91,0.00,,CLR,0.00,0.00,VWS V14.01,2013-05-21 04:01:00,
2013-05-21 00:02:00,63.9,61.2,29.99,NE,56,0.0,0.0,91,0.00,,CLR,0.00,0.00,VWS V14.01,2013-05-21 04:02:00,
2013-05-21 00:07:00,63.8,61.1,29.99,NE,56,0.0,0.0,91,0.00,,CLR,0.00,0.00,VWS V14.01,2013-05-21 04:07:00,
2013-05-21 00:12:00,63.7,61.0,29.99,NE,56,0.0,0.0,91,0.00,,CLR,0.00,0.00,VWS V14.01,2013-05-21 04:12:00,
2013-05-21 00:17:00,63.7,61.3,29.99,NE,56,0.0,0.0,92,0.00,,CLR,0.00,0.00,VWS V14.01,2013-05-21 04:17:00,
2013-05-21 00:22:00,63.7,61.3,29.98,NE,56,0.0,0.0,92,0.00,,CLR,0.00,0.00,VWS V14.01,2013-05-21 04:22:00,
2013-05-21 00:27:00,63.6,61.2,29.98,NE,56,0.0,0.0,92,0.00,,CLR,0.00,0.00,VWS V14.01,2013-05-21 04:27:00,
2013-05-21 00:32:00,63.6,61.2,29.98,NE,56,0.0,0.0,92,0.00,,CLR,0.00,0.00,VWS V14.01,2013-05-21 04:32:00,
2013-05-21 00:37:00,63.5,61.1,29.98,NE,56,0.0,0.0,92,0.00,,CLR,0.00,0.00,VWS V14.01,2013-05-21 04:37:00,
2013-05-21 00:42:00,63.4,61.0,29.98,NE,56,0.0,0.0,92,0.00,,CLR,0.00,0.00,VWS V14.01,2013-05-21 04:42:00,
2013-05-21 00:47:00,63.2,60.8,29.98,NE,56,0.0,0.0,92,0.00,,CLR,0.00,0.00,VWS V14.01,2013-05-21 04:47:00,
2013-05-21 00:52:00,63.2,61.2,29.98,NE,56,0.0,0.0,93,0.00,,CLR,0.00,0.00,VWS V14.01,2013-05-21 04:52:00,
2013-05-21 00:57:00,63.0,61.0,29.97,NE,56,0.0,0.0,93,0.00,,CLR,0.00,0.00,VWS V14.01,2013-05-21 04:57:00,
2013-05-21 01:02:00,62.9,60.5,29.97,NE,56,0.0,0.0,92,0.00,,CLR,0.00,0.00,VWS V14.01,2013-05-21 05:02:00,
2013-05-21 01:07:00,62.7,60.7,29.97,NE,56,0.0,0.0,93,0.00,,CLR,0.00,0.00,VWS V14.01,2013-05-21 05:07:00,
2013-05-21 01:12:00,62.5,60.5,29.97,NE,56,0.0,0.0,93,0.00,,CLR,0.00,0.00,VWS V14.01,2013-05-21 05:12:00,
2013-05-21 01:17:00,62.4,60.3,29.98,NE,56,0.0,0.0,93,0.00,,CLR,0.00,0.00,VWS V14.01,2013-05-21 05:17:00,
2013-05-21 01:22:00,62.3,60.2,29.98,NE,56,0.0,0.0,93,0.00,,CLR,0.00,0.00,VWS V14.01,2013-05-21 05:22:00,
2013-05-21 01:27:00,62.1,60.1,29.97,NE,56,0.0,0.0,93,0.00,,CLR,0.00,0.00,VWS V14.01,2013-05-21 05:27:00,
2013-05-21 01:32:00,61.9,59.9,29.97,NE,56,0.0,0.0,93,0.00,,CLR,0.00,0.00,VWS V14.01,2013-05-21 05:32:00,
2013-05-21 01:37:00,61.7,59.7,29.97,NE,56,0.0,0.0,93,0.00,,CLR,0.00,0.00,VWS V14.01,2013-05-21 05:37:00,
2013-05-21 01:42:00,61.6,59.6,29.97,NE,56,0.0,0.0,93,0.00,,CLR,0.00,0.00,VWS V14.01,2013-05-21 05:42:00,
2013-05-21 01:47:00,61.4,59.4,29.97,NE,56,0.0,0.0,93,0.00,,CLR,0.00,0.00,VWS V14.01,2013-05-21 05:47:00,
2013-05-21 01:53:00,61.3,59.6,29.97,NE,56,0.0,0.0,94,0.00,,CLR,0.00,0.00,VWS V14.01,2013-05-21 05:53:00,
2013-05-21 01:58:00,61.3,59.6,29.97,NE,56,0.0,0.0,94,0.00,,CLR,0.00,0.00,VWS V14.01,2013-05-21 05:58:00,
2013-05-21 02:03:00,61.4,60.0,29.97,NE,56,0.0,0.0,95,0.00,,CLR,0.00,0.00,VWS V14.01,2013-05-21 06:03:00,
2013-05-21 02:08:00,61.4,60.0,29.97,NE,56,0.0,0.0,95,0.00,,CLR,0.00,0.00,VWS V14.01,2013-05-21 06:08:00,
2013-05-21 02:13:00,61.2,59.8,29.96,NE,56,0.0,0.0,95,0.00,,CLR,0.00,0.00,VWS V14.01,2013-05-21 06:13:00,
2013-05-21 02:18:00,61.2,59.8,29.96,NE,56,0.0,0.0,95,0.00,,CLR,0.00,0.00,VWS V14.01,2013-05-21 06:18:00,
2013-05-21 02:23:00,61.3,59.9,29.96,NE,56,0.0,0.0,95,0.00,,CLR,0.00,0.00,VWS V14.01,2013-05-21 06:23:00,
2013-05-21 02:28:00,61.2,59.8,29.95,NE,56,0.0,0.0,95,0.00,,CLR,0.00,0.00,VWS V14.01,2013-05-21 06:28:00,
2013-05-21 02:33:00,61.1,59.7,29.95,NE,56,0.0,0.0,95,0.00,,CLR,0.00,0.00,VWS V14.01,2013-05-21 06:33:00,
2013-05-21 02:38:00,60.9,59.5,29.95,NE,56,0.0,0.0,95,0.00,,CLR,0.00,0.00,VWS V14.01,2013-05-21 06:38:00,
2013-05-21 02:43:00,60.7,59.3,29.95,NE,56,0.0,0.0,95,0.00,,CLR,0.00,0.00,VWS V14.01,2013-05-21 06:43:00,
2013-05-21 02:48:00,60.6,59.2,29.95,NE,56,0.0,0.0,95,0.00,,CLR,0.00,0.00,VWS V14.01,2013-05-21 06:48:00,
2013-05-21 02:53:00,60.7,59.3,29.95,NE,56,0.0,0.0,95,0.00,,CLR,0.00,0.00,VWS V14.01,2013-05-21 06:53:00,
2013-05-21 02:58:00,60.7,59.6,29.95,NE,56,0.0,0.0,96,0.00,,CLR,0.00,0.00,VWS V14.01,2013-05-21 06:58:00,
2013-05-21 03:03:00,60.6,59.5,29.95,NE,56,0.0,0.0,96,0.00,,BKN050,0.00,0.00,VWS V14.01,2013-05-21 07:03:00,
2013-05-21 03:08:00,60.6,59.5,29.94,NE,56,0.0,0.0,96,0.00,,BKN050,0.00,0.00,VWS V14.01,2013-05-21 07:08:00,
2013-05-21 03:13:00,60.7,59.6,29.94,NE,56,0.0,0.0,96,0.00,,BKN050,0.00,0.00,VWS V14.01,2013-05-21 07:13:00,
2013-05-21 03:18:00,60.7,59.6,29.94,NE,56,0.0,0.0,96,0.00,,BKN050,0.00,0.00,VWS V14.01,2013-05-21 07:18:00,
2013-05-21 03:23:00,60.9,59.8,29.94,NE,56,0.0,0.0,96,0.00,,BKN050,0.00,0.00,VWS V14.01,2013-05-21 07:23:00,
2013-05-21 03:28:00,60.8,59.7,29.94,NE,56,0.0,0.0,96,0.00,,BKN050,0.00,0.00,VWS V14.01,2013-05-21 07:28:00,
2013-05-21 03:33:00,60.9,59.8,29.94,NE,56,0.0,0.0,96,0.00,,BKN050,0.00,0.00,VWS V14.01,2013-05-21 07:33:00,
2013-05-21 03:38:00,60.8,60.0,29.94,NE,56,0.0,0.0,97,0.00,,BKN050,0.00,0.00,VWS V14.01,2013-05-21 07:38:00,
2013-05-21 03:43:00,60.7,59.8,29.94,NE,56,0.0,0.0,97,0.00,,BKN050,0.00,0.00,VWS V14.01,2013-05-21 07:43:00,
2013-05-21 03:48:00,60.6,59.8,29.94,NE,56,0.0,0.0,97,0.00,,BKN050,0.00,0.00,VWS V14.01,2013-05-21 07:48:00,
2013-05-21 03:53:00,60.5,59.4,29.94,NE,56,0.0,0.0,96,0.00,,BKN050,0.00,0.00,VWS V14.01,2013-05-21 07:53:00,
2013-05-21 03:58:00,60.5,59.4,29.94,NE,56,0.0,0.0,96,0.00,,BKN050,0.00,0.00,VWS V14.01,2013-05-21 07:58:00,
2013-05-21 04:03:00,60.3,59.2,29.94,NE,56,0.0,0.0,96,0.00,,FEW050,0.00,0.00,VWS V14.01,2013-05-21 08:03:00,
2013-05-21 04:09:00,60.1,59.0,29.94,NE,56,0.0,0.0,96,0.00,,FEW050,0.00,0.00,VWS V14.01,2013-05-21 08:09:00,
2013-05-21 04:14:00,60.0,58.9,29.95,NE,56,0.0,0.0,96,0.00,,FEW050,0.00,0.00,VWS V14.01,2013-05-21 08:14:00,
2013-05-21 04:19:00,59.8,58.7,29.95,NE,56,0.0,0.0,96,0.00,,FEW050,0.00,0.00,VWS V14.01,2013-05-21 08:19:00,
2013-05-21 04:24:00,59.7,58.6,29.95,NE,56,0.0,0.0,96,0.00,,FEW050,0.00,0.00,VWS V14.01,2013-05-21 08:24:00,
2013-05-21 04:29:00,59.5,58.4,29.95,NE,56,0.0,0.0,96,0.00,,FEW050,0.00,0.00,VWS V14.01,2013-05-21 08:29:00,
2013-05-21 04:34:00,59.5,58.7,29.95,NE,56,0.0,0.0,97,0.00,,FEW050,0.00,0.00,VWS V14.01,2013-05-21 08:34:00,
2013-05-21 04:39:00,59.4,58.5,29.95,NE,56,0.0,0.0,97,0.00,,FEW050,0.00,0.00,VWS V14.01,2013-05-21 08:39:00,
2013-05-21 04:44:00,59.2,58.3,29.95,NE,56,0.0,0.0,97,0.00,,FEW050,0.00,0.00,VWS V14.01,2013-05-21 08:44:00,
2013-05-21 04:49:00,59.0,57.9,29.95,NE,56,0.0,0.0,96,0.00,,FEW050,0.00,0.00,VWS V14.01,2013-05-21 08:49:00,
2013-05-21 04:54:00,59.0,57.9,29.95,NE,56,0.0,0.0,96,0.00,,FEW050,0.00,0.00,VWS V14.01,2013-05-21 08:54:00,
2013-05-21 04:59:00,59.0,57.9,29.95,NE,56,0.0,0.0,96,0.00,,FEW050,0.00,0.00,VWS V14.01,2013-05-21 08:59:00,
2013-05-21 05:04:00,59.0,57.9,29.95,NE,56,0.0,0.0,96,0.00,,BKN050,0.00,0.00,VWS V14.01,2013-05-21 09:04:00,
2013-05-21 05:09:00,58.8,57.7,29.96,NE,56,0.0,0.0,96,0.00,,BKN050,0.00,0.00,VWS V14.01,2013-05-21 09:09:00,
2013-05-21 05:14:00,58.7,57.8,29.96,NE,56,0.0,0.0,97,0.00,,BKN050,0.00,0.00,VWS V14.01,2013-05-21 09:14:00,
2013-05-21 05:19:00,58.6,57.8,29.96,NE,56,0.0,0.0,97,0.00,,BKN050,0.00,0.00,VWS V14.01,2013-05-21 09:19:00,
2013-05-21 05:24:00,58.6,57.5,29.96,NE,56,0.0,0.0,96,0.00,,BKN050,0.00,5.00,VWS V14.01,2013-05-21 09:24:00,
2013-05-21 05:29:00,58.4,57.3,29.95,NE,56,0.0,0.0,96,0.00,,BKN050,0.00,7.00,VWS V14.01,2013-05-21 09:29:00,
2013-05-21 05:34:00,58.3,57.5,29.95,NE,56,0.0,0.0,97,0.00,,BKN050,0.00,9.00,VWS V14.01,2013-05-21 09:34:00,
2013-05-21 05:39:00,58.2,57.4,29.95,NE,56,0.0,0.0,97,0.00,,BKN050,0.00,14.00,VWS V14.01,2013-05-21 09:39:00,
2013-05-21 05:44:00,58.1,57.3,29.95,NE,56,0.0,0.0,97,0.00,,BKN050,0.00,19.00,VWS V14.01,2013-05-21 09:44:00,
2013-05-21 05:49:00,58.0,56.9,29.95,NE,56,0.0,0.0,96,0.00,,BKN050,0.00,25.00,VWS V14.01,2013-05-21 09:49:00,
2013-05-21 05:54:00,58.0,57.2,29.95,NE,56,0.0,0.0,97,0.00,,BKN050,0.00,28.00,VWS V14.01,2013-05-21 09:54:00,
2013-05-21 05:59:00,58.1,57.3,29.96,NE,56,0.0,0.0,97,0.00,,BKN050,0.00,30.00,VWS V14.01,2013-05-21 09:59:00,
2013-05-21 06:04:00,58.3,57.5,29.96,NE,56,0.0,0.0,97,0.00,,,0.00,35.00,VWS V14.01,2013-05-21 10:04:00,
2013-05-21 06:09:00,58.5,57.7,29.96,NE,56,0.0,0.0,97,0.00,,,0.00,39.00,VWS V14.01,2013-05-21 10:09:00,
2013-05-21 06:14:00,58.8,58.0,29.97,NE,56,0.0,1.0,97,0.00,,,0.00,46.00,VWS V14.01,2013-05-21 10:14:00,
2013-05-21 06:19:00,59.0,58.2,29.97,NE,56,0.0,3.0,97,0.00,,,0.00,49.00,VWS V14.01,2013-05-21 10:19:00,
2013-05-21 06:24:00,59.4,58.5,29.97,NE,56,1.0,1.0,97,0.00,,,0.00,53.00,VWS V14.01,2013-05-21 10:24:00,
2013-05-21 06:29:00,59.6,59.0,29.97,NE,56,0.0,2.0,98,0.00,,,0.00,65.00,VWS V14.01,2013-05-21 10:29:00,
2013-05-21 06:35:00,59.6,59.0,29.97,NE,56,0.0,1.0,98,0.00,,,0.00,47.00,VWS V14.01,2013-05-21 10:35:00,
2013-05-21 06:40:00,59.7,58.8,29.97,NE,40,0.0,3.0,97,0.00,,,0.00,44.00,VWS V14.01,2013-05-21 10:40:00,
2013-05-21 06:45:00,59.6,58.8,29.97,North,5,0.0,3.0,97,0.00,,,0.00,51.00,VWS V14.01,2013-05-21 10:45:00,
2013-05-21 06:50:00,59.5,58.7,29.96,North,5,0.0,3.0,97,0.00,,,0.00,58.00,VWS V14.01,2013-05-21 10:50:00,
2013-05-21 06:55:00,59.5,58.7,29.96,North,5,0.0,2.0,97,0.00,,,0.00,62.00,VWS V14.01,2013-05-21 10:55:00,
2013-05-21 07:00:00,59.5,58.7,29.96,North,360,0.0,3.0,97,0.00,,,0.00,60.00,VWS V14.01,2013-05-21 11:00:00,
2013-05-21 07:05:00,59.4,58.5,29.95,SW,219,0.0,4.0,97,0.00,,,0.00,70.00,VWS V14.01,2013-05-21 11:05:00,
2013-05-21 07:10:00,59.3,58.5,29.95,SSW,204,0.0,6.0,97,0.00,,,0.00,70.00,VWS V14.01,2013-05-21 11:10:00,
2013-05-21 07:15:00,59.0,58.2,29.95,NNE,31,2.0,5.0,97,0.00,,,0.00,67.00,VWS V14.01,2013-05-21 11:15:00,
2013-05-21 07:20:00,59.0,58.2,29.95,NNE,31,0.0,5.0,97,0.00,,,0.00,86.00,VWS V14.01,2013-05-21 11:20:00,
2013-05-21 07:25:00,59.1,58.2,29.94,South,186,3.0,4.0,97,0.00,,,0.00,97.00,VWS V14.01,2013-05-21 11:25:00,
2013-05-21 07:30:00,59.3,58.5,29.93,South,186,2.0,4.0,97,0.00,,,0.00,107.00,VWS V14.01,2013-05-21 11:30:00,
2013-05-21 07:35:00,59.4,58.5,29.94,North,5,0.0,6.0,97,0.00,,,0.00,118.00,VWS V14.01,2013-05-21 11:35:00,
2013-05-21 07:40:00,59.3,58.5,29.95,NW,304,2.0,6.0,97,0.00,,,0.00,105.00,VWS V14.01,2013-05-21 11:40:00,
2013-05-21 07:45:00,59.3,58.5,29.95,NW,304,0.0,2.0,97,0.00,,,0.00,123.00,VWS V14.01,2013-05-21 11:45:00,
2013-05-21 07:50:00,59.1,58.2,29.96,NE,37,0.0,6.0,97,0.00,,,0.00,70.00,VWS V14.01,2013-05-21 11:50:00,
2013-05-21 07:55:00,59.1,58.2,29.96,SE,146,0.0,4.0,97,0.00,,,0.00,84.00,VWS V14.01,2013-05-21 11:55:00,
2013-05-21 08:00:00,59.1,58.2,29.97,NNE,30,0.0,0.0,97,0.00,,,0.00,104.00,VWS V14.01,2013-05-21 12:00:00,
2013-05-21 08:05:00,59.3,58.5,29.97,NNE,30,0.0,2.0,97,0.00,,,0.00,90.00,VWS V14.01,2013-05-21 12:05:00,
2013-05-21 08:10:00,59.2,58.3,29.97,NNE,30,0.0,0.0,97,0.00,,,0.00,116.00,VWS V14.01,2013-05-21 12:10:00,
2013-05-21 08:15:00,59.3,58.5,29.97,NNE,31,0.0,3.0,97,0.00,,,0.00,114.00,VWS V14.01,2013-05-21 12:15:00,
2013-05-21 08:20:00,59.5,58.7,29.97,NNE,31,0.0,0.0,97,0.00,,,0.00,116.00,VWS V14.01,2013-05-21 12:20:00,
2013-05-21 08:25:00,59.6,58.8,29.97,NNE,31,0.0,1.0,97,0.00,,,0.00,114.00,VWS V14.01,2013-05-21 12:25:00,
2013-05-21 08:30:00,59.7,58.8,29.97,NNE,31,1.0,2.0,97,0.00,,,0.00,125.00,VWS V14.01,2013-05-21 12:30:00,
2013-05-21 08:35:00,59.7,58.8,29.97,NNE,31,0.0,2.0,97,0.00,,,0.00,121.00,VWS V14.01,2013-05-21 12:35:00,
2013-05-21 08:40:00,59.7,58.8,29.97,NNE,32,0.0,0.0,97,0.00,,,0.00,132.00,VWS V14.01,2013-05-21 12:40:00,
2013-05-21 08:45:00,59.8,59.0,29.97,NNE,32,0.0,1.0,97,0.00,,,0.00,132.00,VWS V14.01,2013-05-21 12:45:00,
2013-05-21 08:50:00,60.0,59.2,29.96,NNE,32,1.0,1.0,97,0.00,,,0.00,162.00,VWS V14.01,2013-05-21 12:50:00,
2013-05-21 08:56:00,60.1,59.2,29.96,NNE,32,0.0,1.0,97,0.00,,,0.00,190.00,VWS V14.01,2013-05-21 12:56:00,
2013-05-21 09:01:00,60.3,59.5,29.96,NNE,32,0.0,0.0,97,0.00,,,0.00,202.00,VWS V14.01,2013-05-21 13:01:00,
2013-05-21 09:06:00,60.5,59.7,29.96,NNE,32,0.0,3.0,97,0.00,,,0.00,123.00,VWS V14.01,2013-05-21 13:06:00,
2013-05-21 09:11:00,60.6,59.5,29.96,NNE,32,1.0,1.0,96,0.00,,,0.00,137.00,VWS V14.01,2013-05-21 13:11:00,
2013-05-21 09:16:00,60.7,59.6,29.96,NNE,32,0.0,1.0,96,0.00,,,0.00,132.00,VWS V14.01,2013-05-21 13:16:00,
2013-05-21 09:21:00,60.7,59.6,29.96,NNE,32,0.0,0.0,96,0.00,,,0.00,118.00,VWS V14.01,2013-05-21 13:21:00,
2013-05-21 09:26:00,60.8,59.7,29.96,NNE,31,0.0,1.0,96,0.00,,,0.00,90.00,VWS V14.01,2013-05-21 13:26:00,
2013-05-21 09:31:00,60.9,59.8,29.96,NNE,32,0.0,1.0,96,0.00,,,0.00,139.00,VWS V14.01,2013-05-21 13:31:00,
2013-05-21 09:36:00,61.2,60.0,29.96,NNE,32,1.0,3.0,96,0.00,,,0.00,216.00,VWS V14.01,2013-05-21 13:36:00,
2013-05-21 09:41:00,61.3,60.2,29.95,NNE,32,0.0,0.0,96,0.00,,,0.00,216.00,VWS V14.01,2013-05-21 13:41:00,
2013-05-21 09:46:00,61.6,60.2,29.95,North,11,3.0,3.0,95,0.00,,,0.00,288.00,VWS V14.01,2013-05-21 13:46:00,
2013-05-21 09:51:00,61.6,60.2,29.95,North,11,0.0,3.0,95,0.00,,,0.00,167.00,VWS V14.01,2013-05-21 13:51:00,
2013-05-21 09:56:00,61.7,60.3,29.95,North,11,0.0,3.0,95,0.00,,,0.00,213.00,VWS V14.01,2013-05-21 13:56:00,
2013-05-21 10:01:00,61.8,60.4,29.95,North,11,3.0,3.0,95,0.00,,,0.00,230.00,VWS V14.01,2013-05-21 14:01:00,
2013-05-21 10:06:00,61.8,60.1,29.95,North,11,0.0,3.0,94,0.00,,,0.00,243.00,VWS V14.01,2013-05-21 14:06:00,
2013-05-21 10:11:00,62.2,60.8,29.94,NNE,15,2.0,3.0,95,0.00,,,0.00,399.00,VWS V14.01,2013-05-21 14:11:00,
2013-05-21 10:16:00,62.6,60.8,29.93,SSW,192,0.0,4.0,94,0.00,,,0.00,529.00,VWS V14.01,2013-05-21 14:16:00,
2013-05-21 10:21:00,63.2,61.5,29.93,SSW,192,0.0,0.0,94,0.00,,,0.00,329.00,VWS V14.01,2013-05-21 14:21:00,
2013-05-21 10:26:00,63.6,61.5,29.92,SE,145,0.0,3.0,93,0.00,,,0.00,223.00,VWS V14.01,2013-05-21 14:26:00,
2013-05-21 10:31:00,63.7,61.3,29.92,SE,145,0.0,1.0,92,0.00,,,0.00,302.00,VWS V14.01,2013-05-21 14:31:00,
2013-05-21 10:36:00,63.9,61.5,29.93,South,186,0.0,4.0,92,0.00,,,0.00,473.00,VWS V14.01,2013-05-21 14:36:00,
2013-05-21 10:41:00,64.1,61.4,29.94,South,179,0.0,0.0,91,0.00,,,0.00,253.00,VWS V14.01,2013-05-21 14:41:00,
2013-05-21 10:46:00,64.3,61.6,29.95,South,179,1.0,2.0,91,0.00,,,0.00,93.00,VWS V14.01,2013-05-21 14:46:00,
2013-05-21 10:51:00,64.3,61.3,29.96,North,355,0.0,2.0,90,0.00,,,0.00,65.00,VWS V14.01,2013-05-21 14:51:00,
2013-05-21 10:56:00,64.1,61.4,29.94,North,355,0.0,2.0,91,0.00,,,0.00,141.00,VWS V14.01,2013-05-21 14:56:00,
2013-05-21 11:01:00,64.2,61.8,29.94,North,355,0.0,0.0,92,0.00,,,0.00,237.00,VWS V14.01,2013-05-21 15:01:00,
2013-05-21 11:06:00,65.1,63.3,29.94,North,11,0.0,3.0,94,0.00,,-RA,0.00,854.00,VWS V14.01,2013-05-21 15:06:00,
2013-05-21 11:11:00,65.7,63.6,29.94,NE,34,1.0,3.0,93,0.00,,-RA,0.00,645.00,VWS V14.01,2013-05-21 15:11:00,
2013-05-21 11:16:00,66.2,63.5,29.94,NE,37,2.0,4.0,91,0.00,,-RA,0.00,696.00,VWS V14.01,2013-05-21 15:16:00,
2013-05-21 11:21:00,66.7,64.3,29.94,NE,46,2.0,4.0,92,0.00,,-RA,0.00,904.00,VWS V14.01,2013-05-21 15:21:00,
2013-05-21 11:26:00,67.2,63.5,29.93,NNE,18,2.0,4.0,88,0.00,,-RA,0.00,905.00,VWS V14.01,2013-05-21 15:26:00,
2013-05-21 11:31:00,68.0,64.3,29.93,NNE,33,0.0,3.0,88,0.00,,-RA,0.00,970.00,VWS V14.01,2013-05-21 15:31:00,
2013-05-21 11:36:00,68.7,64.3,29.93,NE,55,4.0,5.0,86,0.00,,-RA,0.00,923.00,VWS V14.01,2013-05-21 15:36:00,
2013-05-21 11:41:00,68.8,64.4,29.91,SSW,196,3.0,5.0,86,0.00,,-RA,0.00,928.00,VWS V14.01,2013-05-21 15:41:00,
2013-05-21 11:46:00,69.5,64.8,29.91,SSW,193,0.0,5.0,85,0.00,,-RA,0.00,984.00,VWS V14.01,2013-05-21 15:46:00,
2013-05-21 11:51:00,70.2,65.8,29.92,NNE,31,3.0,6.0,86,0.00,,-RA,0.00,967.00,VWS V14.01,2013-05-21 15:51:00,
2013-05-21 11:56:00,70.8,65.0,29.92,North,9,2.0,6.0,82,0.00,,-RA,0.00,1062.00,VWS V14.01,2013-05-21 15:56:00,
2013-05-21 12:01:00,71.1,65.0,29.91,NNE,32,0.0,1.0,81,0.00,,-RA,0.00,777.00,VWS V14.01,2013-05-21 16:01:00,
2013-05-21 12:07:00,71.4,65.3,29.91,NNE,32,0.0,3.0,81,0.00,,,0.00,617.00,VWS V14.01,2013-05-21 16:07:00,
2013-05-21 12:12:00,72.0,64.8,29.91,North,355,5.0,6.0,78,0.00,,,0.00,951.00,VWS V14.01,2013-05-21 16:12:00,
2013-05-21 12:17:00,72.1,65.2,29.90,NE,54,0.0,7.0,79,0.00,,,0.00,719.00,VWS V14.01,2013-05-21 16:17:00,
2013-05-21 12:22:00,72.8,66.3,29.90,South,178,3.0,5.0,80,0.00,,,0.00,1085.00,VWS V14.01,2013-05-21 16:22:00,
2013-05-21 12:27:00,73.8,66.9,29.90,ESE,120,3.0,5.0,79,0.00,,,0.00,1093.00,VWS V14.01,2013-05-21 16:27:00,
2013-05-21 12:32:00,73.9,65.5,29.90,NE,35,0.0,1.0,75,0.00,,,0.00,497.00,VWS V14.01,2013-05-21 16:32:00,
2013-05-21 12:37:00,73.5,66.2,29.90,NNE,22,1.0,4.0,78,0.00,,,0.00,538.00,VWS V14.01,2013-05-21 16:37:00,
2013-05-21 12:42:00,73.1,65.5,29.90,NE,41,0.0,3.0,77,0.00,,,0.00,492.00,VWS V14.01,2013-05-21 16:42:00,
2013-05-21 12:47:00,73.0,66.1,29.90,NNE,26,3.0,4.0,79,0.00,,,0.00,795.00,VWS V14.01,2013-05-21 16:47:00,
2013-05-21 12:52:00,73.3,66.0,29.90,NNE,24,0.0,5.0,78,0.00,,,0.00,1030.00,VWS V14.01,2013-05-21 16:52:00,
2013-05-21 12:57:00,74.0,66.7,29.90,South,178,0.0,6.0,78,0.00,,,0.00,977.00,VWS V14.01,2013-05-21 16:57:00,
2013-05-21 13:02:00,74.6,66.5,29.90,NNE,24,1.0,4.0,76,0.00,,OVC011,0.00,949.00,VWS V14.01,2013-05-21 17:02:00,
2013-05-21 13:07:00,74.7,67.4,29.90,NNE,32,4.0,6.0,78,0.00,,OVC011,0.00,939.00,VWS V14.01,2013-05-21 17:07:00,
2013-05-21 13:12:00,74.8,66.3,29.90,NNE,32,4.0,6.0,75,0.00,,OVC011,0.00,932.00,VWS V14.01,2013-05-21 17:12:00,
2013-05-21 13:17:00,75.0,67.3,29.90,NE,51,2.0,6.0,77,0.00,,OVC011,0.00,918.00,VWS V14.01,2013-05-21 17:17:00,
2013-05-21 13:22:00,75.1,66.6,29.90,ENE,67,0.0,5.0,75,0.00,,OVC011,0.00,919.00,VWS V14.01,2013-05-21 17:22:00,
2013-05-21 13:27:00,75.3,66.4,29.90,NE,51,2.0,6.0,74,0.00,,OVC011,0.00,939.00,VWS V14.01,2013-05-21 17:27:00,
2013-05-21 13:32:00,75.9,68.2,29.90,NNW,339,4.0,5.0,77,0.00,,OVC011,0.00,919.00,VWS V14.01,2013-05-21 17:32:00,
2013-05-21 13:37:00,75.9,67.0,29.90,NNE,33,3.0,5.0,74,0.00,,OVC011,0.00,909.00,VWS V14.01,2013-05-21 17:37:00,
2013-05-21 13:42:00,75.9,66.6,29.90,West,277,2.0,6.0,73,0.00,,OVC011,0.00,396.00,VWS V14.01,2013-05-21 17:42:00,
2013-05-21 13:47:00,75.2,66.7,29.90,NNE,16,1.0,9.0,75,0.00,,OVC011,0.00,912.00,VWS V14.01,2013-05-21 17:47:00,
2013-05-21 13:52:00,75.5,67.0,29.90,NW,311,5.0,5.0,75,0.00,,OVC011,0.00,1014.00,VWS V14.01,2013-05-21 17:52:00,
2013-05-21 13:57:00,75.5,66.2,29.90,NE,53,1.0,7.0,73,0.00,,OVC011,0.00,914.00,VWS V14.01,2013-05-21 17:57:00,
2013-05-21 14:02:00,75.0,65.8,29.91,East,81,1.0,7.0,73,0.00,,OVC013,0.00,926.00,VWS V14.01,2013-05-21 18:02:00,
2013-05-21 14:07:00,74.5,64.9,29.91,North,360,5.0,7.0,72,0.00,,OVC013,0.00,919.00,VWS V14.01,2013-05-21 18:07:00,
2013-05-21 14:12:00,73.6,64.4,29.91,North,355,3.0,7.0,73,0.00,,OVC013,0.00,817.00,VWS V14.01,2013-05-21 18:12:00,
2013-05-21 14:18:00,71.8,63.1,29.92,ENE,70,1.0,12.0,74,0.00,,OVC015,0.00,870.00,VWS V14.01,2013-05-21 18:18:00,
2013-05-21 14:22:00,70.2,61.9,29.92,NNE,33,2.0,4.0,75,0.00,,OVC015,0.00,912.00,VWS V14.01,2013-05-21 18:22:00,
2013-05-21 14:28:00,69.4,63.0,29.92,East,93,0.0,9.0,80,0.00,,OVC015,0.00,766.00,VWS V14.01,2013-05-21 18:28:00,
2013-05-21 14:33:00,69.0,61.5,29.92,NNE,17,4.0,9.0,77,0.00,,SCT015,0.00,684.00,VWS V14.01,2013-05-21 18:33:00,
2013-05-21 14:38:00,68.2,61.8,29.91,NE,42,3.0,10.0,80,0.00,,SCT015,0.00,786.00,VWS V14.01,2013-05-21 18:38:00,
2013-05-21 14:43:00,68.0,61.2,29.92,NE,55,4.0,9.0,79,0.00,,SCT015,0.00,849.00,VWS V14.01,2013-05-21 18:43:00,
2013-05-21 14:48:00,67.7,61.0,29.92,NE,38,6.0,10.0,79,0.00,,SCT015,0.00,817.00,VWS V14.01,2013-05-21 18:48:00,
2013-05-21 14:53:00,67.7,61.0,29.91,NE,40,3.0,10.0,79,0.00,,SCT015,0.00,680.00,VWS V14.01,2013-05-21 18:53:00,
2013-05-21 14:58:00,67.7,61.0,29.92,NW,311,2.0,10.0,79,0.00,,SCT015,0.00,729.00,VWS V14.01,2013-05-21 18:58:00,
2013-05-21 15:03:00,68.0,61.2,29.92,ENE,57,3.0,4.0,79,0.00,,FEW020,0.00,775.00,VWS V14.01,2013-05-21 19:03:00,
2013-05-21 15:08:00,68.2,60.7,29.92,NNE,24,2.0,9.0,77,0.00,,FEW020,0.00,835.00,VWS V14.01,2013-05-21 19:08:00,
2013-05-21 15:13:00,68.3,60.5,29.92,NNE,18,10.0,12.0,76,0.00,,FEW020,0.00,775.00,VWS V14.01,2013-05-21 19:13:00,
2013-05-21 15:18:00,67.4,60.3,29.92,NE,55,0.0,12.0,78,0.00,,FEW020,0.00,742.00,VWS V14.01,2013-05-21 19:18:00,
2013-05-21 15:23:00,67.1,59.7,29.92,NNW,336,1.0,12.0,77,0.00,,FEW020,0.00,735.00,VWS V14.01,2013-05-21 19:23:00,
2013-05-21 15:28:00,66.8,59.7,29.92,NW,321,1.0,12.0,78,0.00,,FEW020,0.00,701.00,VWS V14.01,2013-05-21 19:28:00,
2013-05-21 15:33:00,65.9,58.5,29.92,NNE,19,7.0,11.0,77,0.00,,FEW020,0.00,700.00,VWS V14.01,2013-05-21 19:33:00,
2013-05-21 15:38:00,66.1,59.4,29.93,North,5,1.0,11.0,79,0.00,,FEW020,0.00,677.00,VWS V14.01,2013-05-21 19:38:00,
2013-05-21 15:43:00,66.2,58.8,29.93,NNE,24,8.0,8.0,77,0.00,,FEW020,0.00,670.00,VWS V14.01,2013-05-21 19:43:00,
2013-05-21 15:48:00,66.2,58.4,29.93,NNW,344,2.0,8.0,76,0.00,,FEW020,0.00,587.00,VWS V14.01,2013-05-21 19:48:00,
2013-05-21 15:53:00,65.4,57.7,29.93,NNE,23,5.0,8.0,76,0.00,,FEW020,0.00,629.00,VWS V14.01,2013-05-21 19:53:00,
2013-05-21 15:58:00,65.4,58.0,29.93,NNE,15,4.0,8.0,77,0.00,,FEW020,0.00,684.00,VWS V14.01,2013-05-21 19:58:00,
2013-05-21 16:03:00,64.5,57.1,29.93,NE,50,3.0,5.0,77,0.00,,FEW017,0.00,482.00,VWS V14.01,2013-05-21 20:03:00,
2013-05-21 16:08:00,63.4,55.7,29.93,North,355,4.0,13.0,76,0.00,,FEW017,0.00,708.00,VWS V14.01,2013-05-21 20:08:00,
2013-05-21 16:13:00,61.8,54.9,29.94,East,93,2.0,11.0,78,0.00,,FEW017,0.00,374.00,VWS V14.01,2013-05-21 20:13:00,
2013-05-21 16:18:00,60.3,54.5,29.94,NNE,19,2.0,11.0,81,0.00,,BKN015,0.00,271.00,VWS V14.01,2013-05-21 20:18:00,
2013-05-21 16:23:00,59.6,54.1,29.94,NNW,330,5.0,7.0,82,0.00,,BKN015,0.00,271.00,VWS V14.01,2013-05-21 20:23:00,
2013-05-21 16:28:00,59.0,53.8,29.94,SE,126,0.0,11.0,83,0.00,,BKN015,0.00,234.00,VWS V14.01,2013-05-21 20:28:00,
2013-05-21 16:33:00,58.5,53.7,29.95,NNE,24,3.0,7.0,84,0.00,,BKN015,0.00,163.00,VWS V14.01,2013-05-21 20:33:00,
2013-05-21 16:38:00,57.7,53.2,29.95,NNE,24,0.0,11.0,85,0.00,,BKN015,0.00,156.00,VWS V14.01,2013-05-21 20:38:00,
2013-05-21 16:43:00,57.2,53.1,29.95,NW,322,0.0,8.0,86,0.00,,BKN015,0.00,146.00,VWS V14.01,2013-05-21 20:43:00,
2013-05-21 16:48:00,57.0,52.9,29.96,NE,36,4.0,8.0,86,0.00,,BKN015,0.00,132.00,VWS V14.01,2013-05-21 20:48:00,
2013-05-21 16:53:00,56.9,53.1,29.95,SSE,163,0.0,6.0,87,0.00,,BKN015,0.00,120.00,VWS V14.01,2013-05-21 20:53:00,
2013-05-21 16:58:00,56.3,52.2,29.96,NNE,17,2.0,11.0,86,0.00,,BKN015,0.00,114.00,VWS V14.01,2013-05-21 20:58:00,
2013-05-21 17:03:00,55.8,52.0,29.96,NNE,17,4.0,12.0,87,0.00,,OVC012,0.00,100.00,VWS V14.01,2013-05-21 21:03:00,
2013-05-21 17:08:00,55.2,51.4,29.96,NE,54,0.0,12.0,87,0.00,,OVC012,0.00,93.00,VWS V14.01,2013-05-21 21:08:00,
2013-05-21 17:13:00,55.1,51.6,29.97,ENE,68,9.0,9.0,88,0.00,,OVC012,0.00,88.00,VWS V14.01,2013-05-21 21:13:00,
2013-05-21 17:18:00,54.9,51.4,29.96,North,5,3.0,11.0,88,0.00,,OVC012,0.00,102.00,VWS V14.01,2013-05-21 21:18:00,
2013-05-21 17:23:00,54.7,51.2,29.96,NE,44,3.0,8.0,88,0.00,,OVC012,0.00,91.00,VWS V14.01,2013-05-21 21:23:00,
2013-05-21 17:28:00,54.3,50.8,29.97,NE,40,0.0,12.0,88,0.00,,OVC012,0.00,90.00,VWS V14.01,2013-05-21 21:28:00,
2013-05-21 17:33:00,54.1,50.6,29.97,ENE,70,0.0,7.0,88,0.00,,OVC012,0.00,79.00,VWS V14.01,2013-05-21 21:33:00,
2013-05-21 17:38:00,53.7,50.2,29.97,NE,49,7.0,12.0,88,0.00,,OVC012,0.00,70.00,VWS V14.01,2013-05-21 21:38:00,
2013-05-21 17:43:00,53.4,50.2,29.98,SSW,213,0.0,6.0,89,0.00,,OVC012,0.00,56.00,VWS V14.01,2013-05-21 21:43:00,
2013-05-21 17:48:00,53.3,50.5,29.97,North,355,2.0,8.0,90,0.00,,OVC012,0.00,56.00,VWS V14.01,2013-05-21 21:48:00,
2013-05-21 17:53:00,53.2,50.0,29.98,NNE,31,0.0,7.0,89,0.00,,OVC012,0.00,46.00,VWS V14.01,2013-05-21 21:53:00,
2013-05-21 17:59:00,53.1,50.2,29.99,NW,314,1.0,7.0,90,0.00,,OVC012,0.00,42.00,VWS V14.01,2013-05-21 21:59:00,
2013-05-21 18:04:00,52.9,50.0,30.00,NNE,30,6.0,7.0,90,0.00,,OVC012,0.00,37.00,VWS V14.01,2013-05-21 22:04:00,
2013-05-21 18:09:00,52.7,49.8,30.00,ENE,61,0.0,7.0,90,0.00,,OVC012,0.00,30.00,VWS V14.01,2013-05-21 22:09:00,
2013-05-21 18:14:00,52.7,49.8,30.00,NNW,329,0.0,2.0,90,0.00,,OVC012,0.00,33.00,VWS V14.01,2013-05-21 22:14:00,
2013-05-21 18:19:00,52.7,50.2,30.01,SSE,148,0.0,6.0,91,0.00,,OVC012,0.00,53.00,VWS V14.01,2013-05-21 22:19:00,
2013-05-21 18:24:00,52.5,50.0,30.00,North,11,0.0,4.0,91,0.00,,OVC012,0.00,46.00,VWS V14.01,2013-05-21 22:24:00,
2013-05-21 18:29:00,52.4,49.8,30.00,NE,53,0.0,8.0,91,0.00,,OVC012,0.00,42.00,VWS V14.01,2013-05-21 22:29:00,
2013-05-21 18:34:00,52.3,49.8,30.01,ENE,59,0.0,5.0,91,0.00,,OVC012,0.00,28.00,VWS V14.01,2013-05-21 22:34:00,
2013-05-21 18:39:00,52.0,49.5,30.03,ENE,67,5.0,11.0,91,0.00,,OVC012,0.00,19.00,VWS V14.01,2013-05-21 22:39:00,
2013-05-21 18:44:00,51.8,49.3,30.02,NNW,344,3.0,5.0,91,0.00,,OVC012,0.00,19.00,VWS V14.01,2013-05-21 22:44:00,
2013-05-21 18:49:00,51.6,49.1,30.03,NNE,19,1.0,9.0,91,0.00,,OVC012,0.00,14.00,VWS V14.01,2013-05-21 22:49:00,
2013-05-21 18:54:00,51.4,49.2,30.03,ENE,60,2.0,9.0,92,0.00,,OVC012,0.00,11.00,VWS V14.01,2013-05-21 22:54:00,
2013-05-21 18:59:00,51.3,49.1,30.04,North,350,0.0,9.0,92,0.00,,OVC012,0.00,7.00,VWS V14.01,2013-05-21 22:59:00,
2013-05-21 19:04:00,51.3,49.3,30.04,North,350,0.0,2.0,93,0.00,,OVC009,0.00,7.00,VWS V14.01,2013-05-21 23:04:00,
2013-05-21 19:09:00,51.3,49.3,30.03,NNW,342,0.0,3.0,93,0.00,,OVC009,0.00,11.00,VWS V14.01,2013-05-21 23:09:00,
2013-05-21 19:14:00,51.2,49.2,30.03,NE,40,1.0,3.0,93,0.00,,OVC009,0.00,9.00,VWS V14.01,2013-05-21 23:14:00,
2013-05-21 19:19:00,51.1,49.2,30.03,NNE,26,0.0,5.0,93,0.00,,OVC009,0.00,7.00,VWS V14.01,2013-05-21 23:19:00,
2013-05-21 19:24:00,51.1,49.4,30.03,NE,34,0.0,3.0,94,0.00,,OVC009,0.00,7.00,VWS V14.01,2013-05-21 23:24:00,
2013-05-21 19:29:00,51.1,49.4,30.02,NNW,348,0.0,4.0,94,0.00,,OVC009,0.00,7.00,VWS V14.01,2013-05-21 23:29:00,
2013-05-21 19:34:00,51.0,49.3,30.02,NNE,13,0.0,4.0,94,0.00,,OVC009,0.00,5.00,VWS V14.01,2013-05-21 23:34:00,
2013-05-21 19:39:00,50.9,49.2,30.02,North,355,0.0,5.0,94,0.00,,OVC009,0.00,5.00,VWS V14.01,2013-05-21 23:39:00,
2013-05-21 19:44:00,50.7,49.0,30.01,ENE,61,1.0,5.0,94,0.00,,OVC009,0.00,0.00,VWS V14.01,2013-05-21 23:44:00,
2013-05-21 19:49:00,50.5,48.8,30.01,ENE,61,0.0,9.0,94,0.00,,OVC009,0.00,0.00,VWS V14.01,2013-05-21 23:49:00,
2013-05-21 19:54:00,50.6,48.9,30.02,NNW,344,0.0,3.0,94,0.00,,OVC009,0.00,0.00,VWS V14.01,2013-05-21 23:54:00,
2013-05-21 19:59:00,50.6,49.2,30.01,NW,314,0.0,5.0,95,0.00,,OVC009,0.00,0.00,VWS V14.01,2013-05-21 23:59:00,
2013-05-21 20:04:00,50.5,48.8,30.01,NE,45,0.0,7.0,94,0.00,,OVC008,0.00,0.00,VWS V14.01,2013-05-22 00:04:00,
2013-05-21 20:09:00,50.3,48.6,30.01,NNW,338,3.0,7.0,94,0.00,,OVC008,0.00,0.00,VWS V14.01,2013-05-22 00:09:00,
2013-05-21 20:14:00,50.3,48.6,30.01,West,277,0.0,4.0,94,0.00,,OVC008,0.00,0.00,VWS V14.01,2013-05-22 00:14:00,
2013-05-21 20:19:00,50.3,48.6,30.01,West,277,1.0,4.0,94,0.00,,OVC008,0.00,0.00,VWS V14.01,2013-05-22 00:19:00,
2013-05-21 20:24:00,50.2,48.5,30.01,NNW,344,0.0,2.0,94,0.00,,OVC008,0.00,0.00,VWS V14.01,2013-05-22 00:24:00,
2013-05-21 20:30:00,50.3,48.6,30.03,NNW,344,0.0,2.0,94,0.00,,OVC008,0.00,0.00,VWS V14.01,2013-05-22 00:30:00,
2013-05-21 20:35:00,50.3,48.6,30.02,NE,51,3.0,4.0,94,0.00,,OVC008,0.00,0.00,VWS V14.01,2013-05-22 00:35:00,
2013-05-21 20:40:00,50.1,48.4,30.02,NW,317,0.0,5.0,94,0.00,,OVC008,0.00,0.00,VWS V14.01,2013-05-22 00:40:00,
2013-05-21 20:45:00,50.1,48.4,30.02,NW,313,0.0,5.0,94,0.00,,OVC008,0.00,0.00,VWS V14.01,2013-05-22 00:45:00,
2013-05-21 20:50:00,50.1,48.4,30.02,NW,313,0.0,5.0,94,0.00,,OVC008,0.00,0.00,VWS V14.01,2013-05-22 00:50:00,
2013-05-21 20:55:00,50.2,48.5,30.03,NW,313,0.0,2.0,94,0.00,,OVC008,0.00,0.00,VWS V14.01,2013-05-22 00:55:00,
2013-05-21 21:00:00,50.1,48.4,30.02,NE,41,0.0,5.0,94,0.00,,OVC008,0.00,0.00,VWS V14.01,2013-05-22 01:00:00,
2013-05-21 21:05:00,50.0,48.3,30.01,NE,41,0.0,3.0,94,0.00,,OVC008,0.00,0.00,VWS V14.01,2013-05-22 01:05:00,
2013-05-21 21:10:00,50.1,48.4,30.00,NNE,13,2.0,4.0,94,0.00,,OVC008,0.00,0.00,VWS V14.01,2013-05-22 01:10:00,
2013-05-21 21:15:00,49.9,48.2,30.01,ENE,63,1.0,6.0,94,0.00,,OVC008,0.00,0.00,VWS V14.01,2013-05-22 01:15:00,
2013-05-21 21:20:00,49.8,48.2,30.00,NNE,27,0.0,6.0,94,0.00,,OVC008,0.00,0.00,VWS V14.01,2013-05-22 01:20:00,
2013-05-21 21:25:00,49.7,48.0,30.00,NE,34,0.0,5.0,94,0.00,,OVC008,0.00,0.00,VWS V14.01,2013-05-22 01:25:00,
2013-05-21 21:30:00,49.7,48.0,30.00,NE,48,0.0,5.0,94,0.00,,OVC008,0.00,0.00,VWS V14.01,2013-05-22 01:30:00,
2013-05-21 21:35:00,49.7,48.0,30.00,ENE,72,0.0,3.0,94,0.00,,OVC008,0.00,0.00,VWS V14.01,2013-05-22 01:35:00,
2013-05-21 21:40:00,49.7,48.0,29.99,NE,55,0.0,3.0,94,0.00,,OVC008,0.00,0.00,VWS V14.01,2013-05-22 01:40:00,
2013-05-21 21:45:00,49.7,48.0,30.01,NNE,14,0.0,4.0,94,0.00,,OVC008,0.00,0.00,VWS V14.01,2013-05-22 01:45:00,
2013-05-21 21:50:00,49.6,48.0,30.01,ENE,68,1.0,4.0,94,0.00,,OVC008,0.00,0.00,VWS V14.01,2013-05-22 01:50:00,
2013-05-21 21:55:00,49.6,48.2,30.02,NE,50,4.0,4.0,95,0.00,,OVC008,0.00,0.00,VWS V14.01,2013-05-22 01:55:00,
2013-05-21 22:00:00,49.5,47.8,30.02,ENE,71,1.0,5.0,94,0.00,,OVC008,0.00,0.00,VWS V14.01,2013-05-22 02:00:00,
2013-05-21 22:05:00,49.5,47.8,30.02,NNE,20,0.0,4.0,94,0.00,,OVC006,0.00,0.00,VWS V14.01,2013-05-22 02:05:00,
2013-05-21 22:10:00,49.5,48.1,30.03,NNE,13,0.0,4.0,95,0.00,,OVC006,0.00,0.00,VWS V14.01,2013-05-22 02:10:00,
2013-05-21 22:15:00,49.4,48.0,30.02,NE,37,3.0,9.0,95,0.00,,OVC006,0.00,0.00,VWS V14.01,2013-05-22 02:15:00,
2013-05-21 22:20:00,49.4,48.0,30.01,NNE,32,0.0,9.0,95,0.00,,OVC006,0.00,0.00,VWS V14.01,2013-05-22 02:20:00,
2013-05-21 22:25:00,49.4,48.0,29.99,North,10,0.0,3.0,95,0.00,,OVC006,0.00,0.00,VWS V14.01,2013-05-22 02:25:00,
2013-05-21 22:30:00,49.4,48.0,29.99,North,360,1.0,1.0,95,0.00,,OVC006,0.00,0.00,VWS V14.01,2013-05-22 02:30:00,
2013-05-21 22:35:00,49.3,47.9,29.99,ENE,58,0.0,5.0,95,0.00,,OVC006,0.00,0.00,VWS V14.01,2013-05-22 02:35:00,
2013-05-21 22:40:00,49.3,47.9,29.98,North,355,1.0,3.0,95,0.00,,OVC006,0.00,0.00,VWS V14.01,2013-05-22 02:40:00,
2013-05-21 22:45:00,49.2,47.8,29.99,North,360,0.0,5.0,95,0.00,,OVC006,0.00,0.00,VWS V14.01,2013-05-22 02:45:00,
2013-05-21 22:50:00,49.3,47.9,30.00,North,355,0.0,0.0,95,0.00,,OVC006,0.00,0.00,VWS V14.01,2013-05-22 02:50:00,
2013-05-21 22:55:00,49.3,48.2,30.01,WNW,298,0.0,3.0,96,0.00,,OVC006,0.00,0.00,VWS V14.01,2013-05-22 02:55:00,
2013-05-21 23:00:00,49.4,48.3,30.01,NNE,29,0.0,0.0,96,0.00,,OVC006,0.00,0.00,VWS V14.01,2013-05-22 03:00:00,
2013-05-21 23:05:00,49.4,48.3,30.02,NNE,22,1.0,3.0,96,0.00,,OVC006,0.00,0.00,VWS V14.01,2013-05-22 03:05:00,
2013-05-21 23:10:00,49.4,48.3,30.04,NNE,31,2.0,3.0,96,0.00,,OVC006,0.00,0.00,VWS V14.01,2013-05-22 03:10:00,
2013-05-21 23:15:00,49.5,48.4,30.04,ENE,71,0.0,3.0,96,0.00,,OVC006,0.00,0.00,VWS V14.01,2013-05-22 03:15:00,
2013-05-21 23:20:00,49.4,48.3,30.04,NE,42,0.0,0.0,96,0.00,,OVC006,0.00,0.00,VWS V14.01,2013-05-22 03:20:00,
2013-05-21 23:25:00,49.3,48.2,30.04,NNE,13,6.0,9.0,96,0.01,,OVC006,0.01,0.00,VWS V14.01,2013-05-22 03:25:00,
2013-05-21 23:30:00,49.2,48.1,30.04,NNE,32,0.0,2.0,96,0.01,,OVC006,0.01,0.00,VWS V14.01,2013-05-22 03:30:00,
2013-05-21 23:35:00,49.2,48.1,30.04,NNW,344,3.0,6.0,96,0.01,,-RA,0.01,0.00,VWS V14.01,2013-05-22 03:35:00,
2013-05-21 23:41:00,49.1,48.0,30.04,NW,315,0.0,0.0,96,0.01,,-RA,0.01,0.00,VWS V14.01,2013-05-22 03:41:00,
2013-05-21 23:46:00,49.1,48.0,30.04,North,349,0.0,6.0,96,0.01,,-RA,0.01,0.00,VWS V14.01,2013-05-22 03:46:00,
2013-05-21 23:51:00,49.1,48.0,30.03,North,355,0.0,1.0,96,0.01,,-RA,0.01,0.00,VWS V14.01,2013-05-22 03:51:00,
2013-05-21 23:56:00,49.1,48.0,30.03,ENE,70,0.0,4.0,96,0.02,,-RA,0.02,0.00,VWS V14.01,2013-05-22 03:56:00,